Impacts METAR Board
IDs:

KRSL - Russell Muni, KS, US

Updated at: 1400 UTC 13 Dec 2019
Potential Impact None Slight Moderate High
Time 13/02Z 13/03Z 13/04Z 13/05Z 13/06Z 13/07Z 13/08Z 13/09Z 13/10Z 13/11Z 13/12Z 13/13Z 13/14Z
Temp39 38 32 28 29 28 28 27 25 28 23 25 24
Dewpt27 27 25 23 24 24 24 23 22 23 20 21 20
Altim29.99 29.98 29.96 29.96 29.95 29.92 29.90 29.88 29.88 29.85 29.85 29.84 29.84
VIS10 10 10 10 10 10 10 10 10 10 10 10 10
CIG-- -- -- -- -- -- -- -- -- 100 -- -- --
CoverCLRCLRCLRCLRCLRCLRCLRCLRCLRBKNCLRCLRCLR
FltCatVFRVFRVFRVFRVFRVFRVFRVFRVFRVFRVFRVFRVFR
WX--------------------------
WDir3050110180200230220220260220230220
WSpd4 5 4 4 5 5 4 4 9 7 8 9
WGst-- -- -- -- -- -- -- -- -- -- -- -- --
Raw hourly METARs
KRSL 130153Z AUTO 03004KT 10SM CLR 04/M03 A2999 RMK AO2 SLP168 T00391028
KRSL 130253Z AUTO 05005KT 10SM CLR 03/M03 A2998 RMK AO2 SLP166 T00331028 58001
KRSL 130353Z AUTO 11004KT 10SM CLR 00/M04 A2996 RMK AO2 SLP161 T00001039
KRSL 130453Z AUTO 18004KT 10SM CLR M02/M05 A2996 RMK AO2 SLP159 T10221050
KRSL 130553Z AUTO 20005KT 10SM CLR M02/M04 A2995 RMK AO2 SLP153 T10171044 10056 21022 400891022 56010
KRSL 130653Z AUTO 23005KT 10SM CLR M02/M04 A2992 RMK AO2 SLP145 T10221044
KRSL 130753Z AUTO 22004KT 10SM CLR M02/M04 A2990 RMK AO2 SLP136 T10221044
KRSL 130853Z AUTO 22004KT 10SM CLR M03/M05 A2988 RMK AO2 SLP132 T10281050 56020
KRSL 130953Z AUTO 26009KT 10SM CLR M04/M06 A2988 RMK AO2 SLP130 T10391056
KRSL 131053Z AUTO 22007KT 10SM BKN100 M02/M05 A2985 RMK AO2 SLP123 T10221050
KRSL 131153Z AUTO 23008KT 10SM CLR M05/M07 A2985 RMK AO2 SLP124 T10501067 11017 21050 56011
KRSL 131253Z AUTO 22009KT 10SM CLR M04/M06 A2984 RMK AO2 SLP122 T10391061
KRSL 131353Z AUTO 10SM CLR M04/M07 A2984 RMK AO2 SLP122 T10441067 $



Page loaded:  14:01 UTC  |   06:01 AM Pacific  |   07:01 AM Mountain  |   08:01 AM Central  |   09:01 AM Eastern

 

ADVISORIES

FORECASTS

FORECASTS

OBSERVATIONS

USER TOOLS

ABOUT US